Mc Kellar Sipes Regional Airport
KMKL : now visible

Airfield :











YOU CAN JOIN US ON...

 
LOGIN :

Register | Disclaimer

   EN    FR    IT 

 









Legend :    VFR   Marginal VFR   IFR   Intensive IFR   Very Intensive IFR
Visi :
Ceiling :
>= 8 km
>= 3000ft
5 to 8 km
1000 to 3000 ft
1500m to 5 km
500 to 1000 ft
800 to 1500m
200 to 500 ft
< 800m
< 200 ft
Symbols :   Thunderstorms  Fog  Heavy snow  Heavy precipitations  Wind > 20 kt






- Airport Elevation : 434 ft
- IATA code : MKL


KMKL - Mc Kellar Sipes Regional

CURRENT METAR :
  • 211453Z 01013G16KT 10SM CLR 11/00 A3023 RMK AO2 SLP236 T01060000 58001

EXPIRED METARs :
  • 211353Z 02014KT 10SM SCT110 11/01 A3024 RMK AO2 SLP238 T01060006
  • 211253Z 36010KT 10SM CLR 08/01 A3025 RMK AO2 SLP242 T00830011
  • 211153Z 36011KT 10SM FEW120 09/01 A3024 RMK AO2 SLP238 T00890006 10128 20089 51017
  • 211053Z AUTO 02011KT 10SM BKN090 09/01 A3023 RMK AO2 SLP234 T00940011

TAF KMKL
Valid from the 21 at 12:00 until the 22 at 12:00 UTC


211135Z 2112/2212 36014G22KT P6SM SCT060 BKN150
FM220000 36007KT P6SM FEW060 SCT150
FM220600 00000KT P6SM SKC
KZME FIR / North America



MET'MAP, your aeronautical weather chart ! - Copyright ORBIFLY December 2007 - Disclaimer

ORBIFLY MET'MAP TEAM :

Programming & Development : Alexandra Zaïnal
Original concept : Baudouin d'Aumeries
Technical & hardware support : Manuel Goepfert
Assistance : Marc-Olivier Méhu




SOURCES & CREDITS :

   NOAA       Earth
Advisory